sensor_id;sensor_type;location;lat;lon;timestamp;temperature;humidity
2363;DHT22;64265;51.664;7.626;2024-01-06T00:02:19;21.30;81.20
2363;DHT22;64265;51.664;7.626;2024-01-06T00:04:54;21.30;81.20
2363;DHT22;64265;51.664;7.626;2024-01-06T00:07:21;21.30;81.30
2363;DHT22;64265;51.664;7.626;2024-01-06T00:09:51;21.30;81.30
2363;DHT22;64265;51.664;7.626;2024-01-06T00:12:21;21.30;81.40
2363;DHT22;64265;51.664;7.626;2024-01-06T00:14:52;21.30;81.50
2363;DHT22;64265;51.664;7.626;2024-01-06T00:17:28;21.30;81.40
2363;DHT22;64265;51.664;7.626;2024-01-06T00:20:12;21.30;81.40
2363;DHT22;64265;51.664;7.626;2024-01-06T00:22:40;21.20;81.30
2363;DHT22;64265;51.664;7.626;2024-01-06T00:25:14;21.20;81.40
2363;DHT22;64265;51.664;7.626;2024-01-06T00:27:43;21.20;81.40
2363;DHT22;64265;51.664;7.626;2024-01-06T00:30:15;21.20;81.40
2363;DHT22;64265;51.664;7.626;2024-01-06T00:32:56;21.20;81.50
2363;DHT22;64265;51.664;7.626;2024-01-06T00:35:32;21.10;81.50
2363;DHT22;64265;51.664;7.626;2024-01-06T00:38:00;21.10;81.70
2363;DHT22;64265;51.664;7.626;2024-01-06T00:40:27;21.10;81.50
2363;DHT22;64265;51.664;7.626;2024-01-06T00:42:58;21.10;81.50
2363;DHT22;64265;51.664;7.626;2024-01-06T00:45:25;21.10;81.50
2363;DHT22;64265;51.664;7.626;2024-01-06T00:47:59;21.10;81.50
2363;DHT22;64265;51.664;7.626;2024-01-06T00:50:31;21.10;81.50
2363;DHT22;64265;51.664;7.626;2024-01-06T00:52:59;21.10;81.50
2363;DHT22;64265;51.664;7.626;2024-01-06T00:55:26;21.00;81.40
2363;DHT22;64265;51.664;7.626;2024-01-06T00:58:00;21.10;81.70
2363;DHT22;64265;51.664;7.626;2024-01-06T01:00:31;21.00;81.60
2363;DHT22;64265;51.664;7.626;2024-01-06T01:03:01;21.00;81.50
2363;DHT22;64265;51.664;7.626;2024-01-06T01:05:31;21.00;81.50
2363;DHT22;64265;51.664;7.626;2024-01-06T01:08:04;21.00;81.60
2363;DHT22;64265;51.664;7.626;2024-01-06T01:10:35;21.00;81.60
2363;DHT22;64265;51.664;7.626;2024-01-06T01:13:11;20.90;81.60
2363;DHT22;64265;51.664;7.626;2024-01-06T01:15:46;20.90;81.50
2363;DHT22;64265;51.664;7.626;2024-01-06T01:18:16;20.90;81.60
2363;DHT22;64265;51.664;7.626;2024-01-06T01:20:49;20.90;81.80
2363;DHT22;64265;51.664;7.626;2024-01-06T01:23:22;20.90;81.60
2363;DHT22;64265;51.664;7.626;2024-01-06T01:25:52;20.90;81.60
2363;DHT22;64265;51.664;7.626;2024-01-06T01:28:19;20.90;81.80
2363;DHT22;64265;51.664;7.626;2024-01-06T01:30:46;20.90;82.50
2363;DHT22;64265;51.664;7.626;2024-01-06T01:33:19;20.90;81.60
2363;DHT22;64265;51.664;7.626;2024-01-06T01:35:55;20.90;81.50
2363;DHT22;64265;51.664;7.626;2024-01-06T01:38:28;20.90;81.70
2363;DHT22;64265;51.664;7.626;2024-01-06T01:40:55;20.80;81.60
2363;DHT22;64265;51.664;7.626;2024-01-06T01:43:30;20.80;81.60
2363;DHT22;64265;51.664;7.626;2024-01-06T01:45:57;20.80;81.50
2363;DHT22;64265;51.664;7.626;2024-01-06T01:48:26;20.80;81.70
2363;DHT22;64265;51.664;7.626;2024-01-06T01:50:57;20.80;81.70
2363;DHT22;64265;51.664;7.626;2024-01-06T01:53:26;20.80;81.80
2363;DHT22;64265;51.664;7.626;2024-01-06T01:55:57;20.80;81.80
2363;DHT22;64265;51.664;7.626;2024-01-06T01:58:25;20.80;81.70
2363;DHT22;64265;51.664;7.626;2024-01-06T02:00:54;20.80;81.50
2363;DHT22;64265;51.664;7.626;2024-01-06T02:03:24;20.70;81.40
2363;DHT22;64265;51.664;7.626;2024-01-06T02:06:00;20.70;82.10
2363;DHT22;64265;51.664;7.626;2024-01-06T02:08:31;20.70;81.60
2363;DHT22;64265;51.664;7.626;2024-01-06T02:11:03;20.70;81.60
2363;DHT22;64265;51.664;7.626;2024-01-06T02:13:37;20.70;81.70
2363;DHT22;64265;51.664;7.626;2024-01-06T02:16:05;20.70;81.70
2363;DHT22;64265;51.664;7.626;2024-01-06T02:18:38;20.70;81.70
2363;DHT22;64265;51.664;7.626;2024-01-06T02:21:14;20.70;81.70
2363;DHT22;64265;51.664;7.626;2024-01-06T02:23:49;20.70;81.60
2363;DHT22;64265;51.664;7.626;2024-01-06T02:26:19;20.70;81.50
2363;DHT22;64265;51.664;7.626;2024-01-06T02:28:48;20.60;81.40
2363;DHT22;64265;51.664;7.626;2024-01-06T02:31:22;20.60;81.50
2363;DHT22;64265;51.664;7.626;2024-01-06T02:33:48;20.60;81.50
2363;DHT22;64265;51.664;7.626;2024-01-06T02:36:19;20.60;81.50
2363;DHT22;64265;51.664;7.626;2024-01-06T02:38:51;20.60;81.90
2363;DHT22;64265;51.664;7.626;2024-01-06T02:41:27;20.60;81.80
2363;DHT22;64265;51.664;7.626;2024-01-06T02:44:02;20.60;81.50
2363;DHT22;64265;51.664;7.626;2024-01-06T02:46:38;20.60;81.70
2363;DHT22;64265;51.664;7.626;2024-01-06T02:49:11;20.60;81.60
2363;DHT22;64265;51.664;7.626;2024-01-06T02:51:39;20.60;81.70
2363;DHT22;64265;51.664;7.626;2024-01-06T02:54:10;20.60;81.50
2363;DHT22;64265;51.664;7.626;2024-01-06T02:56:41;20.60;81.70
2363;DHT22;64265;51.664;7.626;2024-01-06T02:59:10;20.60;81.70
2363;DHT22;64265;51.664;7.626;2024-01-06T03:01:37;20.60;81.70
2363;DHT22;64265;51.664;7.626;2024-01-06T03:04:07;20.60;81.60
2363;DHT22;64265;51.664;7.626;2024-01-06T03:06:36;20.50;81.70
2363;DHT22;64265;51.664;7.626;2024-01-06T03:09:03;20.50;81.50
2363;DHT22;64265;51.664;7.626;2024-01-06T03:11:34;20.50;81.40
2363;DHT22;64265;51.664;7.626;2024-01-06T03:14:04;20.50;81.40
2363;DHT22;64265;51.664;7.626;2024-01-06T03:16:40;20.50;81.40
2363;DHT22;64265;51.664;7.626;2024-01-06T03:19:22;20.50;81.70
2363;DHT22;64265;51.664;7.626;2024-01-06T03:21:58;20.50;81.50
2363;DHT22;64265;51.664;7.626;2024-01-06T03:24:30;20.50;81.70
2363;DHT22;64265;51.664;7.626;2024-01-06T03:27:13;20.50;81.70
2363;DHT22;64265;51.664;7.626;2024-01-06T03:29:41;20.50;81.60
2363;DHT22;64265;51.664;7.626;2024-01-06T03:32:14;20.50;81.70
2363;DHT22;64265;51.664;7.626;2024-01-06T03:34:53;20.50;81.50
2363;DHT22;64265;51.664;7.626;2024-01-06T03:37:23;20.50;81.50
2363;DHT22;64265;51.664;7.626;2024-01-06T03:39:54;20.40;81.40
2363;DHT22;64265;51.664;7.626;2024-01-06T03:42:36;20.40;81.30
2363;DHT22;64265;51.664;7.626;2024-01-06T03:45:06;20.40;81.40
2363;DHT22;64265;51.664;7.626;2024-01-06T03:47:39;20.40;81.50
2363;DHT22;64265;51.664;7.626;2024-01-06T03:50:12;20.40;81.50
2363;DHT22;64265;51.664;7.626;2024-01-06T03:52:41;20.40;81.30
2363;DHT22;64265;51.664;7.626;2024-01-06T03:55:08;20.40;81.50
2363;DHT22;64265;51.664;7.626;2024-01-06T03:57:42;20.40;81.40
2363;DHT22;64265;51.664;7.626;2024-01-06T04:00:15;20.40;81.50
2363;DHT22;64265;51.664;7.626;2024-01-06T04:02:47;20.40;81.40
2363;DHT22;64265;51.664;7.626;2024-01-06T04:05:18;20.40;81.40
2363;DHT22;64265;51.664;7.626;2024-01-06T04:07:46;20.40;81.40
2363;DHT22;64265;51.664;7.626;2024-01-06T04:10:21;20.40;81.90
2363;DHT22;64265;51.664;7.626;2024-01-06T04:12:55;20.40;81.40
2363;DHT22;64265;51.664;7.626;2024-01-06T04:15:28;20.40;81.60
2363;DHT22;64265;51.664;7.626;2024-01-06T04:18:02;20.40;81.40
2363;DHT22;64265;51.664;7.626;2024-01-06T04:20:31;20.40;81.50
2363;DHT22;64265;51.664;7.626;2024-01-06T04:23:04;20.40;81.50
2363;DHT22;64265;51.664;7.626;2024-01-06T04:25:34;20.40;81.60
2363;DHT22;64265;51.664;7.626;2024-01-06T04:28:12;20.40;81.30
2363;DHT22;64265;51.664;7.626;2024-01-06T04:30:42;20.40;81.70
2363;DHT22;64265;51.664;7.626;2024-01-06T04:33:21;20.40;81.50
2363;DHT22;64265;51.664;7.626;2024-01-06T04:35:49;20.40;81.50
2363;DHT22;64265;51.664;7.626;2024-01-06T04:38:18;20.40;81.30
2363;DHT22;64265;51.664;7.626;2024-01-06T04:40:52;20.40;82.20
2363;DHT22;64265;51.664;7.626;2024-01-06T04:43:28;20.30;81.40
2363;DHT22;64265;51.664;7.626;2024-01-06T04:45:56;20.30;81.20
2363;DHT22;64265;51.664;7.626;2024-01-06T04:48:23;20.30;82.20
2363;DHT22;64265;51.664;7.626;2024-01-06T04:50:51;20.30;81.30
2363;DHT22;64265;51.664;7.626;2024-01-06T04:53:19;20.40;81.50
2363;DHT22;64265;51.664;7.626;2024-01-06T04:55:49;20.30;81.20
2363;DHT22;64265;51.664;7.626;2024-01-06T04:58:20;20.30;81.20
2363;DHT22;64265;51.664;7.626;2024-01-06T05:00:48;20.30;81.30
2363;DHT22;64265;51.664;7.626;2024-01-06T05:03:23;20.30;81.30
2363;DHT22;64265;51.664;7.626;2024-01-06T05:05:54;20.30;81.30
2363;DHT22;64265;51.664;7.626;2024-01-06T05:08:25;20.30;81.30
2363;DHT22;64265;51.664;7.626;2024-01-06T05:10:58;20.30;81.20
2363;DHT22;64265;51.664;7.626;2024-01-06T05:13:36;20.30;81.20
2363;DHT22;64265;51.664;7.626;2024-01-06T05:16:09;20.30;81.20
2363;DHT22;64265;51.664;7.626;2024-01-06T05:18:37;20.30;81.20
2363;DHT22;64265;51.664;7.626;2024-01-06T05:21:11;20.30;81.20
2363;DHT22;64265;51.664;7.626;2024-01-06T05:23:38;20.30;81.20
2363;DHT22;64265;51.664;7.626;2024-01-06T05:26:10;20.30;81.30
2363;DHT22;64265;51.664;7.626;2024-01-06T05:28:43;20.30;81.20
2363;DHT22;64265;51.664;7.626;2024-01-06T05:31:27;20.30;81.20
2363;DHT22;64265;51.664;7.626;2024-01-06T05:33:54;20.20;81.20
2363;DHT22;64265;51.664;7.626;2024-01-06T05:36:24;20.20;81.10
2363;DHT22;64265;51.664;7.626;2024-01-06T05:38:56;20.30;81.20
2363;DHT22;64265;51.664;7.626;2024-01-06T05:41:27;20.20;81.20
2363;DHT22;64265;51.664;7.626;2024-01-06T05:44:04;20.20;81.10
2363;DHT22;64265;51.664;7.626;2024-01-06T05:46:35;20.20;81.30
2363;DHT22;64265;51.664;7.626;2024-01-06T05:49:09;20.20;81.20
2363;DHT22;64265;51.664;7.626;2024-01-06T05:51:44;20.20;81.20
2363;DHT22;64265;51.664;7.626;2024-01-06T05:54:17;20.20;81.40
2363;DHT22;64265;51.664;7.626;2024-01-06T05:56:44;20.20;81.40
2363;DHT22;64265;51.664;7.626;2024-01-06T05:59:16;20.20;81.50
2363;DHT22;64265;51.664;7.626;2024-01-06T06:02:05;20.20;81.50
2363;DHT22;64265;51.664;7.626;2024-01-06T06:04:32;20.20;81.50
2363;DHT22;64265;51.664;7.626;2024-01-06T06:07:04;20.20;81.30
2363;DHT22;64265;51.664;7.626;2024-01-06T06:09:35;20.20;81.30
2363;DHT22;64265;51.664;7.626;2024-01-06T06:12:10;20.20;81.30
2363;DHT22;64265;51.664;7.626;2024-01-06T06:14:45;20.20;81.40
2363;DHT22;64265;51.664;7.626;2024-01-06T06:17:15;20.20;81.30
2363;DHT22;64265;51.664;7.626;2024-01-06T06:19:45;20.20;81.40
2363;DHT22;64265;51.664;7.626;2024-01-06T06:22:14;20.20;81.40
2363;DHT22;64265;51.664;7.626;2024-01-06T06:24:50;20.20;81.70
2363;DHT22;64265;51.664;7.626;2024-01-06T06:27:20;20.20;81.40
2363;DHT22;64265;51.664;7.626;2024-01-06T06:29:57;20.20;81.50
2363;DHT22;64265;51.664;7.626;2024-01-06T06:32:29;20.20;81.20
2363;DHT22;64265;51.664;7.626;2024-01-06T06:35:01;20.20;81.30
2363;DHT22;64265;51.664;7.626;2024-01-06T06:37:30;20.10;81.30
2363;DHT22;64265;51.664;7.626;2024-01-06T06:40:06;20.20;81.50
2363;DHT22;64265;51.664;7.626;2024-01-06T06:42:34;20.20;81.40
2363;DHT22;64265;51.664;7.626;2024-01-06T06:45:05;20.20;81.30
2363;DHT22;64265;51.664;7.626;2024-01-06T06:47:37;20.20;81.50
2363;DHT22;64265;51.664;7.626;2024-01-06T06:50:07;20.10;81.30
2363;DHT22;64265;51.664;7.626;2024-01-06T06:52:36;20.10;81.20
2363;DHT22;64265;51.664;7.626;2024-01-06T06:55:07;20.10;81.20
2363;DHT22;64265;51.664;7.626;2024-01-06T06:57:41;20.10;81.20
2363;DHT22;64265;51.664;7.626;2024-01-06T07:00:13;20.10;81.20
2363;DHT22;64265;51.664;7.626;2024-01-06T07:02:55;20.10;81.40
2363;DHT22;64265;51.664;7.626;2024-01-06T07:05:35;20.10;81.60
2363;DHT22;64265;51.664;7.626;2024-01-06T07:08:07;20.10;81.40
2363;DHT22;64265;51.664;7.626;2024-01-06T07:10:46;20.10;81.30
2363;DHT22;64265;51.664;7.626;2024-01-06T07:13:13;20.10;81.40
2363;DHT22;64265;51.664;7.626;2024-01-06T07:15:41;20.10;81.40
2363;DHT22;64265;51.664;7.626;2024-01-06T07:18:11;20.10;81.50
2363;DHT22;64265;51.664;7.626;2024-01-06T07:20:44;20.10;81.40
2363;DHT22;64265;51.664;7.626;2024-01-06T07:23:10;20.10;81.40
2363;DHT22;64265;51.664;7.626;2024-01-06T07:25:48;20.10;81.20
2363;DHT22;64265;51.664;7.626;2024-01-06T07:28:21;20.10;81.30
2363;DHT22;64265;51.664;7.626;2024-01-06T07:30:55;20.10;81.60
2363;DHT22;64265;51.664;7.626;2024-01-06T07:33:23;20.10;81.70
2363;DHT22;64265;51.664;7.626;2024-01-06T07:35:56;20.10;82.10
2363;DHT22;64265;51.664;7.626;2024-01-06T07:38:25;20.10;82.70
2363;DHT22;64265;51.664;7.626;2024-01-06T07:41:07;20.20;82.80
2363;DHT22;64265;51.664;7.626;2024-01-06T07:43:36;20.20;83.10
2363;DHT22;64265;51.664;7.626;2024-01-06T07:46:17;20.20;83.30
2363;DHT22;64265;51.664;7.626;2024-01-06T07:48:50;20.20;83.60
2363;DHT22;64265;51.664;7.626;2024-01-06T07:51:25;20.30;84.00
2363;DHT22;64265;51.664;7.626;2024-01-06T07:53:56;20.30;84.10
2363;DHT22;64265;51.664;7.626;2024-01-06T07:56:23;20.30;84.50
2363;DHT22;64265;51.664;7.626;2024-01-06T07:58:55;20.30;84.40
2363;DHT22;64265;51.664;7.626;2024-01-06T08:01:24;20.40;84.60
2363;DHT22;64265;51.664;7.626;2024-01-06T08:03:55;20.40;85.10
2363;DHT22;64265;51.664;7.626;2024-01-06T08:06:26;20.40;85.00
2363;DHT22;64265;51.664;7.626;2024-01-06T08:08:54;20.40;85.30
2363;DHT22;64265;51.664;7.626;2024-01-06T08:11:26;20.40;85.40
2363;DHT22;64265;51.664;7.626;2024-01-06T08:13:57;20.50;85.40
2363;DHT22;64265;51.664;7.626;2024-01-06T08:16:29;20.50;85.30
2363;DHT22;64265;51.664;7.626;2024-01-06T08:18:56;20.50;85.40
2363;DHT22;64265;51.664;7.626;2024-01-06T08:21:25;20.50;85.30
2363;DHT22;64265;51.664;7.626;2024-01-06T08:23:54;20.50;85.20
2363;DHT22;64265;51.664;7.626;2024-01-06T08:26:25;20.60;85.20
2363;DHT22;64265;51.664;7.626;2024-01-06T08:28:54;20.60;85.30
2363;DHT22;64265;51.664;7.626;2024-01-06T08:31:27;20.60;85.20
2363;DHT22;64265;51.664;7.626;2024-01-06T08:33:58;20.60;85.20
2363;DHT22;64265;51.664;7.626;2024-01-06T08:36:36;20.60;85.00
2363;DHT22;64265;51.664;7.626;2024-01-06T08:39:04;20.70;85.00
2363;DHT22;64265;51.664;7.626;2024-01-06T08:41:32;20.70;84.80
2363;DHT22;64265;51.664;7.626;2024-01-06T08:44:06;20.70;84.80
2363;DHT22;64265;51.664;7.626;2024-01-06T08:46:34;20.80;84.80
2363;DHT22;64265;51.664;7.626;2024-01-06T08:49:04;20.80;84.90
2363;DHT22;64265;51.664;7.626;2024-01-06T08:52:00;20.80;84.80
2363;DHT22;64265;51.664;7.626;2024-01-06T08:54:26;20.70;84.70
2363;DHT22;64265;51.664;7.626;2024-01-06T08:56:54;20.70;84.50
2363;DHT22;64265;51.664;7.626;2024-01-06T08:59:25;20.70;84.40
2363;DHT22;64265;51.664;7.626;2024-01-06T09:02:01;20.70;84.40
2363;DHT22;64265;51.664;7.626;2024-01-06T09:04:27;20.70;84.40
2363;DHT22;64265;51.664;7.626;2024-01-06T09:06:59;20.70;84.20
2363;DHT22;64265;51.664;7.626;2024-01-06T09:09:29;20.70;84.10
2363;DHT22;64265;51.664;7.626;2024-01-06T09:12:05;20.80;83.90
2363;DHT22;64265;51.664;7.626;2024-01-06T09:14:40;20.80;83.90
2363;DHT22;64265;51.664;7.626;2024-01-06T09:17:20;20.80;83.80
2363;DHT22;64265;51.664;7.626;2024-01-06T09:19:58;20.80;83.80
2363;DHT22;64265;51.664;7.626;2024-01-06T09:22:28;20.80;83.80
2363;DHT22;64265;51.664;7.626;2024-01-06T09:24:59;20.80;83.80
2363;DHT22;64265;51.664;7.626;2024-01-06T09:27:30;20.80;83.70
2363;DHT22;64265;51.664;7.626;2024-01-06T09:29:58;20.80;84.40
2363;DHT22;64265;51.664;7.626;2024-01-06T09:32:26;20.80;83.50
2363;DHT22;64265;51.664;7.626;2024-01-06T09:34:56;20.80;83.40
2363;DHT22;64265;51.664;7.626;2024-01-06T09:37:27;20.80;83.40
2363;DHT22;64265;51.664;7.626;2024-01-06T09:40:00;20.80;83.40
2363;DHT22;64265;51.664;7.626;2024-01-06T09:42:34;20.80;83.30
2363;DHT22;64265;51.664;7.626;2024-01-06T09:45:15;20.80;83.20
2363;DHT22;64265;51.664;7.626;2024-01-06T09:47:49;20.80;83.10
2363;DHT22;64265;51.664;7.626;2024-01-06T09:50:20;20.80;83.10
2363;DHT22;64265;51.664;7.626;2024-01-06T09:52:50;20.80;83.30
2363;DHT22;64265;51.664;7.626;2024-01-06T09:55:28;20.80;83.20
2363;DHT22;64265;51.664;7.626;2024-01-06T09:58:01;20.80;83.20
2363;DHT22;64265;51.664;7.626;2024-01-06T10:00:30;20.80;83.20
2363;DHT22;64265;51.664;7.626;2024-01-06T10:03:05;20.80;83.10
2363;DHT22;64265;51.664;7.626;2024-01-06T10:05:35;20.80;83.20
2363;DHT22;64265;51.664;7.626;2024-01-06T10:08:04;20.80;83.20
2363;DHT22;64265;51.664;7.626;2024-01-06T10:10:40;20.80;83.30
2363;DHT22;64265;51.664;7.626;2024-01-06T10:13:12;20.80;83.20
2363;DHT22;64265;51.664;7.626;2024-01-06T10:15:47;20.80;83.30
2363;DHT22;64265;51.664;7.626;2024-01-06T10:18:18;20.70;83.20
2363;DHT22;64265;51.664;7.626;2024-01-06T10:20:57;20.70;83.20
2363;DHT22;64265;51.664;7.626;2024-01-06T10:23:27;20.70;83.10
2363;DHT22;64265;51.664;7.626;2024-01-06T10:25:55;20.70;83.10
2363;DHT22;64265;51.664;7.626;2024-01-06T10:28:28;20.70;83.10
2363;DHT22;64265;51.664;7.626;2024-01-06T10:30:57;20.70;83.10
2363;DHT22;64265;51.664;7.626;2024-01-06T10:33:38;20.70;83.10
2363;DHT22;64265;51.664;7.626;2024-01-06T10:36:12;20.70;83.10
2363;DHT22;64265;51.664;7.626;2024-01-06T10:38:42;20.70;83.10
2363;DHT22;64265;51.664;7.626;2024-01-06T10:41:13;20.70;83.00
2363;DHT22;64265;51.664;7.626;2024-01-06T10:43:44;20.70;83.10
2363;DHT22;64265;51.664;7.626;2024-01-06T10:46:18;20.70;83.00
2363;DHT22;64265;51.664;7.626;2024-01-06T10:48:55;20.70;83.00
2363;DHT22;64265;51.664;7.626;2024-01-06T10:51:30;20.70;83.00
2363;DHT22;64265;51.664;7.626;2024-01-06T10:54:10;20.60;82.80
2363;DHT22;64265;51.664;7.626;2024-01-06T10:56:38;20.60;82.80
2363;DHT22;64265;51.664;7.626;2024-01-06T10:59:08;20.60;82.90
2363;DHT22;64265;51.664;7.626;2024-01-06T11:01:47;20.60;82.80
2363;DHT22;64265;51.664;7.626;2024-01-06T11:04:22;20.60;82.70
2363;DHT22;64265;51.664;7.626;2024-01-06T11:06:50;20.60;82.80
2363;DHT22;64265;51.664;7.626;2024-01-06T11:09:24;20.60;83.70
2363;DHT22;64265;51.664;7.626;2024-01-06T11:11:56;20.60;83.00
2363;DHT22;64265;51.664;7.626;2024-01-06T11:14:36;20.60;82.80
2363;DHT22;64265;51.664;7.626;2024-01-06T11:17:07;20.60;83.00
2363;DHT22;64265;51.664;7.626;2024-01-06T11:19:46;20.60;83.20
2363;DHT22;64265;51.664;7.626;2024-01-06T11:22:23;20.60;83.40
2363;DHT22;64265;51.664;7.626;2024-01-06T11:24:55;20.60;83.50
2363;DHT22;64265;51.664;7.626;2024-01-06T11:27:26;20.60;83.60
2363;DHT22;64265;51.664;7.626;2024-01-06T11:29:54;20.70;83.80
2363;DHT22;64265;51.664;7.626;2024-01-06T11:32:34;20.70;83.90
2363;DHT22;64265;51.664;7.626;2024-01-06T11:35:11;20.70;83.90
2363;DHT22;64265;51.664;7.626;2024-01-06T11:37:58;20.70;84.10
2363;DHT22;64265;51.664;7.626;2024-01-06T11:40:33;20.70;84.10
2363;DHT22;64265;51.664;7.626;2024-01-06T11:43:09;20.70;84.20
2363;DHT22;64265;51.664;7.626;2024-01-06T11:45:41;20.70;84.20
2363;DHT22;64265;51.664;7.626;2024-01-06T11:48:11;20.70;84.70
2363;DHT22;64265;51.664;7.626;2024-01-06T11:50:42;20.80;84.60
2363;DHT22;64265;51.664;7.626;2024-01-06T11:53:21;20.80;84.70
2363;DHT22;64265;51.664;7.626;2024-01-06T11:55:55;20.80;84.70
2363;DHT22;64265;51.664;7.626;2024-01-06T11:58:25;20.80;84.80
2363;DHT22;64265;51.664;7.626;2024-01-06T12:01:02;20.80;84.80
2363;DHT22;64265;51.664;7.626;2024-01-06T12:03:32;20.80;84.80
2363;DHT22;64265;51.664;7.626;2024-01-06T12:06:03;20.80;84.80
2363;DHT22;64265;51.664;7.626;2024-01-06T12:08:31;20.80;84.90
2363;DHT22;64265;51.664;7.626;2024-01-06T12:11:07;20.90;84.90
2363;DHT22;64265;51.664;7.626;2024-01-06T12:13:40;20.90;84.80
2363;DHT22;64265;51.664;7.626;2024-01-06T12:16:10;20.90;84.70
2363;DHT22;64265;51.664;7.626;2024-01-06T12:18:41;21.00;84.70
2363;DHT22;64265;51.664;7.626;2024-01-06T12:21:24;21.00;84.80
2363;DHT22;64265;51.664;7.626;2024-01-06T12:23:54;21.00;84.60
2363;DHT22;64265;51.664;7.626;2024-01-06T12:26:45;21.00;84.50
2363;DHT22;64265;51.664;7.626;2024-01-06T12:29:18;21.00;84.50
2363;DHT22;64265;51.664;7.626;2024-01-06T12:31:49;21.10;84.60
2363;DHT22;64265;51.664;7.626;2024-01-06T12:34:24;21.10;84.70
2363;DHT22;64265;51.664;7.626;2024-01-06T12:36:54;21.10;84.70
2363;DHT22;64265;51.664;7.626;2024-01-06T12:39:27;21.10;84.70
2363;DHT22;64265;51.664;7.626;2024-01-06T12:41:57;21.10;84.60
2363;DHT22;64265;51.664;7.626;2024-01-06T12:44:31;21.10;84.60
2363;DHT22;64265;51.664;7.626;2024-01-06T12:47:04;21.10;84.60
2363;DHT22;64265;51.664;7.626;2024-01-06T12:49:33;21.10;84.60
2363;DHT22;64265;51.664;7.626;2024-01-06T12:52:09;21.10;84.60
2363;DHT22;64265;51.664;7.626;2024-01-06T12:54:38;21.10;84.60
2363;DHT22;64265;51.664;7.626;2024-01-06T12:57:05;21.20;84.70
2363;DHT22;64265;51.664;7.626;2024-01-06T12:59:35;21.20;84.70
2363;DHT22;64265;51.664;7.626;2024-01-06T13:02:08;21.20;84.60
2363;DHT22;64265;51.664;7.626;2024-01-06T13:04:36;21.20;84.60
2363;DHT22;64265;51.664;7.626;2024-01-06T13:07:10;21.20;84.60
2363;DHT22;64265;51.664;7.626;2024-01-06T13:09:44;21.20;84.60
2363;DHT22;64265;51.664;7.626;2024-01-06T13:12:18;21.20;84.60
2363;DHT22;64265;51.664;7.626;2024-01-06T13:15:03;21.20;84.60
2363;DHT22;64265;51.664;7.626;2024-01-06T13:17:40;21.20;84.60
2363;DHT22;64265;51.664;7.626;2024-01-06T13:20:08;21.20;84.60
2363;DHT22;64265;51.664;7.626;2024-01-06T13:22:36;21.20;84.70
2363;DHT22;64265;51.664;7.626;2024-01-06T13:25:09;21.20;84.70
2363;DHT22;64265;51.664;7.626;2024-01-06T13:27:37;21.20;84.70
2363;DHT22;64265;51.664;7.626;2024-01-06T13:30:17;21.20;84.70
2363;DHT22;64265;51.664;7.626;2024-01-06T13:32:48;21.30;84.70
2363;DHT22;64265;51.664;7.626;2024-01-06T13:35:34;21.30;84.70
2363;DHT22;64265;51.664;7.626;2024-01-06T13:38:05;21.10;70.30
2363;DHT22;64265;51.664;7.626;2024-01-06T13:40:34;20.70;64.20
2363;DHT22;64265;51.664;7.626;2024-01-06T13:43:01;20.40;63.10
2363;DHT22;64265;51.664;7.626;2024-01-06T13:45:31;20.20;61.50
2363;DHT22;64265;51.664;7.626;2024-01-06T13:48:03;19.90;58.70
2363;DHT22;64265;51.664;7.626;2024-01-06T13:50:33;19.80;57.50
2363;DHT22;64265;51.664;7.626;2024-01-06T13:53:00;19.90;59.80
2363;DHT22;64265;51.664;7.626;2024-01-06T13:55:41;20.00;63.30
2363;DHT22;64265;51.664;7.626;2024-01-06T13:58:11;20.20;64.00
2363;DHT22;64265;51.664;7.626;2024-01-06T14:00:37;20.30;64.60
2363;DHT22;64265;51.664;7.626;2024-01-06T14:03:07;20.40;65.00
2363;DHT22;64265;51.664;7.626;2024-01-06T14:05:40;20.50;65.60
2363;DHT22;64265;51.664;7.626;2024-01-06T14:08:14;20.60;66.80
2363;DHT22;64265;51.664;7.626;2024-01-06T14:10:49;20.60;66.50
2363;DHT22;64265;51.664;7.626;2024-01-06T14:13:18;20.70;67.60
2363;DHT22;64265;51.664;7.626;2024-01-06T14:15:45;20.80;67.70
2363;DHT22;64265;51.664;7.626;2024-01-06T14:18:14;20.80;67.90
2363;DHT22;64265;51.664;7.626;2024-01-06T14:20:43;20.90;69.00
2363;DHT22;64265;51.664;7.626;2024-01-06T14:23:12;20.90;68.70
2363;DHT22;64265;51.664;7.626;2024-01-06T14:25:38;20.90;69.20
2363;DHT22;64265;51.664;7.626;2024-01-06T14:28:09;20.90;69.40
2363;DHT22;64265;51.664;7.626;2024-01-06T14:30:40;21.00;70.20
2363;DHT22;64265;51.664;7.626;2024-01-06T14:33:19;21.00;70.30
2363;DHT22;64265;51.664;7.626;2024-01-06T14:35:47;21.10;70.80
2363;DHT22;64265;51.664;7.626;2024-01-06T14:38:18;21.10;70.90
2363;DHT22;64265;51.664;7.626;2024-01-06T14:40:45;21.10;71.00
2363;DHT22;64265;51.664;7.626;2024-01-06T14:43:18;21.10;71.20
2363;DHT22;64265;51.664;7.626;2024-01-06T14:45:46;21.10;71.40
2363;DHT22;64265;51.664;7.626;2024-01-06T14:48:19;21.10;71.70
2363;DHT22;64265;51.664;7.626;2024-01-06T14:50:46;21.20;71.90
2363;DHT22;64265;51.664;7.626;2024-01-06T14:53:13;21.20;72.30
2363;DHT22;64265;51.664;7.626;2024-01-06T14:55:43;21.20;72.00
2363;DHT22;64265;51.664;7.626;2024-01-06T14:58:23;21.20;72.10
2363;DHT22;64265;51.664;7.626;2024-01-06T15:00:59;21.20;72.60
2363;DHT22;64265;51.664;7.626;2024-01-06T15:03:32;21.20;72.70
2363;DHT22;64265;51.664;7.626;2024-01-06T15:06:03;21.20;72.90
2363;DHT22;64265;51.664;7.626;2024-01-06T15:08:33;21.20;73.10
2363;DHT22;64265;51.664;7.626;2024-01-06T15:11:14;21.20;73.10
2363;DHT22;64265;51.664;7.626;2024-01-06T15:13:46;21.30;73.50
2363;DHT22;64265;51.664;7.626;2024-01-06T15:16:15;21.30;73.60
2363;DHT22;64265;51.664;7.626;2024-01-06T15:18:47;21.30;74.00
2363;DHT22;64265;51.664;7.626;2024-01-06T15:21:19;21.30;73.90
2363;DHT22;64265;51.664;7.626;2024-01-06T15:24:02;21.30;74.00
2363;DHT22;64265;51.664;7.626;2024-01-06T15:26:35;21.30;74.20
2363;DHT22;64265;51.664;7.626;2024-01-06T15:29:07;21.30;74.50
2363;DHT22;64265;51.664;7.626;2024-01-06T15:31:37;21.30;74.60
2363;DHT22;64265;51.664;7.626;2024-01-06T15:34:12;21.20;67.90
2363;DHT22;64265;51.664;7.626;2024-01-06T15:36:51;20.90;67.80
2363;DHT22;64265;51.664;7.626;2024-01-06T15:39:23;21.00;71.10
2363;DHT22;64265;51.664;7.626;2024-01-06T15:42:00;21.10;71.20
2363;DHT22;64265;51.664;7.626;2024-01-06T15:44:45;21.20;71.90
2363;DHT22;64265;51.664;7.626;2024-01-06T15:47:34;21.20;72.60
2363;DHT22;64265;51.664;7.626;2024-01-06T15:50:01;21.30;72.10
2363;DHT22;64265;51.664;7.626;2024-01-06T15:52:30;21.30;72.50
2363;DHT22;64265;51.664;7.626;2024-01-06T15:54:58;21.30;72.50
2363;DHT22;64265;51.664;7.626;2024-01-06T15:57:31;21.30;72.60
2363;DHT22;64265;51.664;7.626;2024-01-06T16:00:15;21.40;73.00
2363;DHT22;64265;51.664;7.626;2024-01-06T16:02:46;21.40;72.80
2363;DHT22;64265;51.664;7.626;2024-01-06T16:05:25;21.40;73.00
2363;DHT22;64265;51.664;7.626;2024-01-06T16:07:58;21.50;73.40
2363;DHT22;64265;51.664;7.626;2024-01-06T16:10:40;21.50;73.40
2363;DHT22;64265;51.664;7.626;2024-01-06T16:13:10;21.50;73.40
2363;DHT22;64265;51.664;7.626;2024-01-06T16:15:39;21.50;73.30
2363;DHT22;64265;51.664;7.626;2024-01-06T16:18:06;21.50;73.50